Lüsse Airport EDOJ

Flugplatz Daten

Name: Lüsse Airport

Ident: EDOJ

Lat: 52,14110947

Long: 12,66472244

Platzhöhe: 217 ft

IataCode:

City: Lüsse

Metar

2021/10/16 23:00
RJTT 162300Z 34022KT 9999 -SHRA FEW015 BKN040 19/15 Q1009 TEMPO 4500 -SHRA BR RMK 1CU015 7CU040 A2981 MOD TURB OBS AT 2250Z EDOJO BTN 5000FT AND 7000FT BY B738

Taf

Gewünschte Webcam nicht vorhanden? Dann fügen Sie eine hinzu. Sie wird dann so schnell wie möglich freigeschaltet
Url: Title: